CN-0032 weather

CLOSED Kunming Wujiaba International Airport
Kunming, Yunnan Province, China

Public forecast

Using degrees Celsius for public forecast. Weather courtesy of forecast.io.

Closest aviation weather report (METAR) to Kunming Wujiaba International Airport

Closest report is Kunming Changshui International Airport, 12.1 nm (22.3 km) ENE. Retrieved 2020/07/09 15:00 UTC (3 minutes ago):

ZPPP 091500Z 21005MPS 9999 SCT023 OVC040 19/18 Q1014 NOSIG

Closest aviation forecast (TAF) to Kunming Wujiaba International Airport

Closest forecast is Kunming Changshui International Airport, 12.1 nm (22.3 km) ENE. Retrieved 2020/07/09 12:00 UTC (3 hours ago):

TAF ZPPP 090904Z 0912/1012 23006MPS 9999 SCT023 BKN033 TX24/1008Z TN17/0923Z